Pepinster, Belgium
Current Conditions -  °F | °C
As of 6:50 PM on Sunday 25 Jan 2015 (Local Time) from EBLG Reporting Station
Light Rain Light Rain  
Wind Chill: -2°   Ceiling: Unl
Heat Index:   Visibility: 4mi
Dew Point:   Wind: 8mph
Humidity: 93%   Direction: 210°SSW
Pressure: 30.39"   Gusts: NA
Location:  50.57°N, 5.8°E
Report Text: EBLG 251750Z 21007KT 6000 -RA FEW006 SCT040 02/01 Q1029 R23/120195 TEMPO BKN005
Loading
Personal Weather Stations






























Interactive Weather Map New forecast layout! Learn more

10-Day Weather Forecast

Advertisements
Track Severe Weather on mobile